createdAt,value
2024-05-09T00:02:18.432Z,86.34
2024-05-09T00:07:21.912Z,86.64
2024-05-09T00:12:25.301Z,85.89
2024-05-09T00:17:29.112Z,85.75
2024-05-09T00:22:33.255Z,86.37
2024-05-09T00:27:37.410Z,86.89
2024-05-09T00:32:40.960Z,86.69
2024-05-09T00:37:44.406Z,85.33
2024-05-09T00:42:47.995Z,85.76
2024-05-09T00:47:51.820Z,85.14
2024-05-09T00:52:55.725Z,85.95
2024-05-09T00:57:59.335Z,86.47
2024-05-09T01:03:03.302Z,85.86
2024-05-09T01:08:07.585Z,84.37
2024-05-09T01:13:11.252Z,82.94
2024-05-09T01:18:15.095Z,83.24
2024-05-09T01:23:18.572Z,86.38
2024-05-09T01:28:22.176Z,90.34
2024-05-09T01:33:25.925Z,92.66
2024-05-09T01:38:29.739Z,98.10
2024-05-09T01:43:33.190Z,100.00
2024-05-09T01:48:36.783Z,100.00
2024-05-09T01:53:40.136Z,100.00
2024-05-09T01:58:43.523Z,100.00
2024-05-09T02:03:49.976Z,100.00
2024-05-09T02:08:53.555Z,100.00
2024-05-09T02:13:56.937Z,100.00
2024-05-09T02:19:00.314Z,100.00
2024-05-09T02:24:04.098Z,100.00
2024-05-09T02:29:07.990Z,100.00
2024-05-09T02:34:11.569Z,100.00
2024-05-09T02:39:15.202Z,100.00
2024-05-09T02:44:18.588Z,100.00
2024-05-09T02:49:22.158Z,100.00
2024-05-09T02:54:25.546Z,100.00
2024-05-09T02:59:28.925Z,100.00
2024-05-09T03:04:32.537Z,100.00
2024-05-09T03:09:35.889Z,100.00
2024-05-09T03:14:39.189Z,100.00
2024-05-09T03:19:42.460Z,100.00
2024-05-09T03:24:45.794Z,100.00
2024-05-09T03:29:49.055Z,100.00
2024-05-09T03:34:52.560Z,100.00
2024-05-09T03:39:55.855Z,100.00
2024-05-09T03:44:59.098Z,100.00
2024-05-09T03:50:03.332Z,100.00
2024-05-09T03:55:09.177Z,100.00
2024-05-09T04:00:18.297Z,100.00
2024-05-09T04:05:31.226Z,100.00
2024-05-09T04:10:35.523Z,100.00
2024-05-09T04:15:39.501Z,100.00
2024-05-09T04:20:43.125Z,100.00
2024-05-09T04:25:47.181Z,100.00
2024-05-09T04:30:51.113Z,100.00
2024-05-09T04:35:54.712Z,100.00
2024-05-09T04:40:58.207Z,100.00
2024-05-09T04:46:01.679Z,100.00
2024-05-09T04:51:07.579Z,100.00
2024-05-09T04:56:10.993Z,100.00
2024-05-09T05:01:16.438Z,100.00
2024-05-09T05:06:19.744Z,100.00
2024-05-09T05:11:23.297Z,100.00
2024-05-09T05:16:26.798Z,100.00
2024-05-09T05:21:30.265Z,100.00
2024-05-09T05:26:34.933Z,100.00
2024-05-09T05:31:38.682Z,100.00
2024-05-09T05:36:42.058Z,100.00
2024-05-09T05:41:45.285Z,100.00
2024-05-09T05:46:49.268Z,100.00
2024-05-09T05:58:19.901Z,100.00
2024-05-09T06:03:24.311Z,100.00
2024-05-09T06:08:30.277Z,100.00
2024-05-09T06:13:34.308Z,100.00
2024-05-09T06:18:38.218Z,100.00
2024-05-09T06:23:49.036Z,100.00
2024-05-09T06:28:52.507Z,100.00
2024-05-09T06:33:56.254Z,100.00
2024-05-09T06:38:59.731Z,100.00
2024-05-09T06:44:03.247Z,100.00
2024-05-09T06:49:09.326Z,100.00
2024-05-09T06:54:12.895Z,100.00
2024-05-09T06:59:16.574Z,100.00
2024-05-09T07:04:20.200Z,100.00
2024-05-09T07:09:23.798Z,100.00
2024-05-09T07:14:27.490Z,100.00
2024-05-09T07:19:31.104Z,100.00
2024-05-09T07:24:36.230Z,100.00
2024-05-09T07:29:39.687Z,100.00
2024-05-09T07:34:43.129Z,100.00
2024-05-09T07:39:46.761Z,100.00
2024-05-09T07:44:50.345Z,100.00
2024-05-09T07:51:32.896Z,100.00
2024-05-09T07:55:17.661Z,100.00
2024-05-09T08:00:29.503Z,100.00
2024-05-09T08:05:35.284Z,100.00
2024-05-09T08:10:38.858Z,100.00
2024-05-09T08:15:42.904Z,100.00
2024-05-09T08:20:52.904Z,100.00
2024-05-09T08:25:56.239Z,100.00
2024-05-09T08:31:01.645Z,100.00
2024-05-09T08:36:05.983Z,100.00
2024-05-09T08:41:09.449Z,100.00
2024-05-09T08:46:13.830Z,100.00
2024-05-09T08:51:17.642Z,100.00
2024-05-09T08:56:23.373Z,100.00
2024-05-09T09:01:31.485Z,100.00
2024-05-09T09:06:36.116Z,99.84
2024-05-09T09:11:39.720Z,99.77
2024-05-09T09:16:43.645Z,98.13
2024-05-09T09:21:47.136Z,96.96
2024-05-09T09:26:54.562Z,95.24
2024-05-09T09:32:07.293Z,96.10
2024-05-09T09:37:14.611Z,96.14
2024-05-09T09:42:25.482Z,97.88
2024-05-09T09:47:40.522Z,96.66
2024-05-09T09:52:46.691Z,96.34
2024-05-09T09:57:50.654Z,97.08
2024-05-09T10:02:54.348Z,93.81
2024-05-09T10:07:59.095Z,91.77
2024-05-09T10:13:06.510Z,93.12
2024-05-09T10:18:11.423Z,93.33
2024-05-09T10:23:31.507Z,91.06
2024-05-09T10:28:42.988Z,86.65
2024-05-09T10:33:53.793Z,86.83
2024-05-09T10:44:40.389Z,90.03
2024-05-09T10:49:44.882Z,89.47
2024-05-09T10:54:59.148Z,91.12
2024-05-09T11:00:18.972Z,91.64
2024-05-09T11:05:27.699Z,89.53
2024-05-09T11:10:34.221Z,87.55
2024-05-09T11:15:42.323Z,90.49
2024-05-09T11:20:49.812Z,93.11
2024-05-09T11:26:02.922Z,92.12
2024-05-09T11:31:11.153Z,93.75
2024-05-09T11:36:23.049Z,96.33
2024-05-09T11:41:33.111Z,98.58
2024-05-09T11:46:55.689Z,95.55
2024-05-09T11:52:29.059Z,94.35
2024-05-09T11:57:35.936Z,96.49
2024-05-09T12:02:48.829Z,95.95
2024-05-09T12:07:54.149Z,99.41
2024-05-09T12:13:00.812Z,100.00
2024-05-09T12:18:11.288Z,100.00
2024-05-09T12:23:17.079Z,100.00
2024-05-09T12:28:24.698Z,100.00
2024-05-09T12:33:33.419Z,100.00
2024-05-09T12:38:37.221Z,100.00
2024-05-09T12:43:45.916Z,100.00
2024-05-09T12:48:54.327Z,100.00
2024-05-09T12:54:01.336Z,100.00
2024-05-09T13:13:03.304Z,97.20
2024-05-09T13:18:07.710Z,100.00
2024-05-09T13:23:11.526Z,100.00
2024-05-09T13:28:15.333Z,100.00
2024-05-09T13:33:18.875Z,100.00
2024-05-09T13:38:22.927Z,100.00
2024-05-09T13:43:26.875Z,100.00
2024-05-09T13:48:30.618Z,100.00
2024-05-09T13:53:34.017Z,100.00
2024-05-09T13:58:37.376Z,100.00
2024-05-09T14:03:41.227Z,99.62
2024-05-09T14:08:44.931Z,97.69
2024-05-09T14:13:48.249Z,95.32
2024-05-09T14:18:51.929Z,96.03
2024-05-09T14:23:55.734Z,92.37
2024-05-09T14:28:59.136Z,95.21
2024-05-09T14:34:02.821Z,94.20
2024-05-09T14:39:06.191Z,87.54
2024-05-09T14:44:09.588Z,89.72
2024-05-09T14:49:13.023Z,87.53
2024-05-09T14:54:16.732Z,88.84
2024-05-09T14:59:19.992Z,89.91
2024-05-09T15:04:24.301Z,90.24
2024-05-09T15:09:27.902Z,89.10
2024-05-09T15:14:31.300Z,86.53
2024-05-09T15:19:34.890Z,84.77
2024-05-09T15:24:39.856Z,87.69
2024-05-09T15:29:44.583Z,89.42
2024-05-09T15:34:48.038Z,84.46
2024-05-09T15:39:52.012Z,88.38
2024-05-09T15:44:55.339Z,91.34
2024-05-09T15:49:58.792Z,92.39
2024-05-09T15:55:02.155Z,90.59
2024-05-09T16:00:09.848Z,93.73
2024-05-09T16:05:18.560Z,94.76
2024-05-09T16:10:26.006Z,96.10
2024-05-09T16:15:35.413Z,97.57
2024-05-09T16:20:41.652Z,96.53
2024-05-09T16:25:48.463Z,97.52
2024-05-09T16:30:52.198Z,99.11
2024-05-09T16:35:55.473Z,96.75
2024-05-09T16:40:58.756Z,99.34
2024-05-09T16:46:04.236Z,100.00
2024-05-09T16:51:07.548Z,100.00
2024-05-09T16:56:10.982Z,100.00
2024-05-09T17:01:17.776Z,100.00
2024-05-09T17:06:21.718Z,100.00
2024-05-09T17:11:25.281Z,96.06
2024-05-09T17:16:30.812Z,92.29
2024-05-09T17:21:34.402Z,92.95
2024-05-09T17:26:37.763Z,93.80
2024-05-09T17:31:41.031Z,94.86
2024-05-09T17:36:44.775Z,97.48
2024-05-09T17:41:48.139Z,99.85
2024-05-09T17:46:51.568Z,99.84
2024-05-09T17:51:55.427Z,98.13
2024-05-09T17:56:58.950Z,96.58
2024-05-09T18:02:02.512Z,95.27
2024-05-09T18:07:06.351Z,92.75
2024-05-09T18:12:09.709Z,90.48
2024-05-09T18:17:13.811Z,89.33
2024-05-09T18:22:17.518Z,88.14
2024-05-09T18:27:20.828Z,88.17
2024-05-09T18:32:24.305Z,88.57
2024-05-09T18:37:27.794Z,86.53
2024-05-09T18:42:31.113Z,86.79
2024-05-09T18:47:35.019Z,86.13
2024-05-09T18:52:38.526Z,88.10
2024-05-09T18:57:42.205Z,86.90
2024-05-09T19:02:46.235Z,90.18
2024-05-09T19:07:49.835Z,88.73
2024-05-09T19:12:53.455Z,87.90
2024-05-09T19:17:56.942Z,87.61
2024-05-09T19:23:00.451Z,89.82
2024-05-09T19:28:05.192Z,90.44
2024-05-09T19:33:11.265Z,90.39
2024-05-09T19:38:16.301Z,91.42
2024-05-09T19:43:20.146Z,93.14
2024-05-09T19:48:23.850Z,94.44
2024-05-09T19:53:27.194Z,96.98
2024-05-09T19:58:30.537Z,98.04
2024-05-09T20:03:37.684Z,99.06
2024-05-09T20:08:41.375Z,100.00
2024-05-09T20:13:44.723Z,100.00
2024-05-09T20:18:48.170Z,100.00
2024-05-09T20:23:52.059Z,100.00
2024-05-09T20:28:55.262Z,100.00
2024-05-09T20:33:58.499Z,100.00
2024-05-09T20:39:01.966Z,100.00
2024-05-09T20:44:05.296Z,100.00
2024-05-09T20:49:08.892Z,100.00
2024-05-09T20:54:12.582Z,100.00
2024-05-09T20:59:15.963Z,100.00
2024-05-09T21:04:19.345Z,100.00
2024-05-09T21:09:26.191Z,100.00
2024-05-09T21:14:30.505Z,100.00
2024-05-09T21:19:33.732Z,100.00
2024-05-09T21:24:36.967Z,100.00
2024-05-09T21:29:40.564Z,100.00
2024-05-09T21:34:44.228Z,100.00
2024-05-09T21:39:48.298Z,100.00
2024-05-09T21:44:51.668Z,100.00
2024-05-09T21:49:55.055Z,100.00
2024-05-09T21:54:58.436Z,100.00
2024-05-09T22:00:02.125Z,100.00
2024-05-09T22:05:08.470Z,100.00
2024-05-09T22:10:22.653Z,100.00
2024-05-09T22:15:30.210Z,100.00
2024-05-09T22:20:37.738Z,100.00
2024-05-09T22:25:43.088Z,100.00
2024-05-09T22:30:47.550Z,100.00
2024-05-09T22:35:51.841Z,100.00
2024-05-09T22:40:55.522Z,100.00
2024-05-09T22:45:59.201Z,100.00
2024-05-09T22:51:02.519Z,100.00
2024-05-09T22:56:05.998Z,100.00
2024-05-09T23:01:15.543Z,100.00
2024-05-09T23:06:18.915Z,100.00
2024-05-09T23:11:22.734Z,100.00
2024-05-09T23:16:26.310Z,100.00
2024-05-09T23:21:29.754Z,100.00
2024-05-09T23:26:33.175Z,100.00
2024-05-09T23:31:36.450Z,100.00
2024-05-09T23:36:39.844Z,100.00
2024-05-09T23:41:43.100Z,100.00
2024-05-09T23:46:46.426Z,100.00
2024-05-09T23:51:49.680Z,100.00
2024-05-09T23:56:52.931Z,100.00
